Time;durP1;ratioP1;P1;durP2;ratioP2;P2;SDS_P1;SDS_P2;PMS_P1;PMS_P2;Temp;Humidity;BMP_temperature;BMP_pressure;BME280_temperature;BME280_humidity;BME280_pressure;Samples;Min_cycle;Max_cycle;Signal;HPM_P1;HPM_P2
2023/06/25 00:02:22;;;;;;;5.67;4.53;;;16.60;74.10;;;16.47;64.68;98451.72;4995252;28;20450;-78
2023/06/25 00:04:49;;;;;;;6.20;4.60;;;16.60;75.00;;;16.36;64.47;98444.41;4988155;28;20459;-75
2023/06/25 00:07:17;;;;;;;5.00;4.37;;;16.50;74.90;;;16.28;64.13;98448.34;4991035;28;20475;-79
2023/06/25 00:09:54;;;;;;;6.20;4.67;;;16.40;74.70;;;16.31;64.05;98430.69;4997559;28;20437;-75
2023/06/25 00:12:21;;;;;;;5.57;4.93;;;16.40;74.90;;;16.23;64.48;98445.53;4995562;28;20458;-78
2023/06/25 00:14:52;;;;;;;6.10;4.93;;;16.40;74.90;;;16.28;63.94;98449.19;4992478;28;20478;-79
2023/06/25 00:17:21;;;;;;;5.20;4.67;;;16.40;75.10;;;16.26;64.75;98454.06;4993294;28;21023;-77
2023/06/25 00:19:49;;;;;;;5.77;4.73;;;16.40;75.40;;;16.34;64.79;98447.41;4990992;28;20459;-78
2023/06/25 00:22:16;;;;;;;5.83;4.53;;;16.40;75.70;;;16.20;64.85;98440.56;4987968;28;21107;-78
2023/06/25 00:24:44;;;;;;;5.70;4.50;;;16.30;76.00;;;16.18;64.99;98437.25;4969289;28;20463;-78
2023/06/25 00:27:12;;;;;;;5.33;3.80;;;16.20;76.30;;;16.14;64.97;98442.38;4988476;28;20569;-75
2023/06/25 00:29:39;;;;;;;5.20;4.17;;;16.20;76.10;;;16.07;64.68;98437.03;4983341;28;20473;-77
2023/06/25 00:32:09;;;;;;;5.20;4.50;;;16.10;75.90;;;16.05;64.69;98441.91;4984927;28;20461;-76
2023/06/25 00:34:41;;;;;;;5.83;4.73;;;16.10;75.90;;;16.10;64.74;98444.72;4989048;28;20459;-77
2023/06/25 00:37:16;;;;;;;5.37;4.37;;;16.10;76.30;;;16.07;64.46;98434.31;4967729;28;20467;-78
2023/06/25 00:39:45;;;;;;;4.70;3.73;;;16.10;76.10;;;16.04;64.79;98437.53;4998498;28;20461;-73
2023/06/25 00:42:13;;;;;;;4.83;4.33;;;16.10;76.10;;;16.06;64.53;98423.66;4993867;28;20519;-75
2023/06/25 00:44:41;;;;;;;4.90;4.17;;;16.10;76.50;;;16.06;64.57;98424.50;4995578;28;20452;-75
2023/06/25 00:47:14;;;;;;;5.33;4.60;;;16.10;76.30;;;15.93;65.11;98422.03;4986228;28;20543;-78
2023/06/25 00:49:42;;;;;;;7.00;4.60;;;16.00;76.40;;;15.89;64.96;98423.56;4994204;28;20753;-77
2023/06/25 00:52:12;;;;;;;6.73;4.33;;;16.00;76.40;;;15.83;64.86;98409.00;4992850;28;20579;-77
2023/06/25 00:54:41;;;;;;;6.13;4.83;;;16.00;76.40;;;15.93;64.60;98419.31;4973647;28;21065;-78
2023/06/25 00:57:10;;;;;;;7.63;5.13;;;16.00;76.50;;;15.89;64.72;98416.22;4981824;28;20444;-78
2023/06/25 00:59:42;;;;;;;4.90;4.50;;;16.00;76.60;;;15.81;65.41;98420.13;4990397;28;20503;-77
2023/06/25 01:02:19;;;;;;;6.57;5.00;;;16.00;76.50;;;15.74;65.21;98411.28;4992682;28;20522;-76
2023/06/25 01:05:05;;;;;;;5.37;4.80;;;15.90;76.50;;;15.82;65.24;98419.06;4973324;28;20450;-77
2023/06/25 01:07:36;;;;;;;5.80;4.97;;;15.90;76.80;;;15.83;65.82;98415.25;4971219;28;20546;-75
2023/06/25 01:10:06;;;;;;;5.00;4.50;;;15.90;77.30;;;15.78;65.89;98417.88;4989296;28;20455;-74
2023/06/25 01:12:33;;;;;;;4.83;4.10;;;15.90;77.30;;;15.62;66.60;98407.72;4984368;28;20518;-77
2023/06/25 01:15:04;;;;;;;5.10;4.53;;;15.70;77.50;;;15.56;66.65;98404.06;4988166;28;20475;-76
2023/06/25 01:17:33;;;;;;;5.60;4.80;;;15.70;77.90;;;15.61;66.44;98403.34;4985351;28;21003;-77
2023/06/25 01:20:00;;;;;;;4.30;3.60;;;15.70;78.20;;;15.53;66.93;98405.34;4986122;28;20439;-76
2023/06/25 01:22:31;;;;;;;6.23;4.90;;;15.60;78.10;;;15.42;67.08;98400.78;4984614;28;20471;-77
2023/06/25 01:24:59;;;;;;;5.20;4.70;;;15.60;78.50;;;15.36;67.20;98393.53;4987790;28;20539;-76
2023/06/25 01:27:27;;;;;;;5.00;4.50;;;15.40;78.70;;;15.39;66.66;98403.94;4985727;28;20478;-77
2023/06/25 01:29:55;;;;;;;5.73;4.60;;;15.40;78.60;;;15.44;66.30;98401.38;4992643;28;20521;-75
2023/06/25 01:32:24;;;;;;;6.23;5.10;;;15.50;78.30;;;15.43;66.26;98388.81;4970444;28;20452;-75
2023/06/25 01:34:52;;;;;;;5.10;4.37;;;15.60;78.10;;;15.51;66.45;98393.88;4989917;28;20502;-75
2023/06/25 01:37:20;;;;;;;4.93;4.23;;;15.60;78.40;;;15.39;66.94;98393.06;4993663;28;20545;-77
2023/06/25 01:39:53;;;;;;;6.60;4.63;;;15.50;78.60;;;15.33;66.88;98385.84;4974919;28;20447;-76
2023/06/25 01:42:21;;;;;;;7.93;5.27;;;15.40;78.80;;;15.37;67.06;98378.84;4971879;28;20451;-76
2023/06/25 01:44:50;;;;;;;5.60;4.90;;;15.40;78.90;;;15.34;67.31;98393.78;4991462;28;20944;-76
2023/06/25 01:47:18;;;;;;;5.77;3.70;;;15.50;79.10;;;15.32;67.46;98385.03;4989095;28;20511;-78
2023/06/25 01:49:46;;;;;;;4.90;4.30;;;15.50;79.20;;;15.26;67.79;98391.41;4989141;28;20466;-78
2023/06/25 01:52:14;;;;;;;5.83;4.67;;;15.40;79.20;;;15.19;67.78;98380.66;4988028;28;20944;-75
2023/06/25 01:54:42;;;;;;;5.00;4.50;;;15.40;79.50;;;15.23;67.25;98381.81;4990628;28;20541;-74
2023/06/25 01:57:11;;;;;;;6.37;4.90;;;15.40;79.20;;;15.06;68.19;98373.56;4987184;28;21071;-76
2023/06/25 01:59:39;;;;;;;5.77;4.93;;;15.30;79.20;;;15.02;68.37;98377.81;4987235;28;20498;-77
2023/06/25 02:02:07;;;;;;;6.53;4.77;;;15.30;79.90;;;14.99;68.34;98379.09;4979324;28;20803;-76
2023/06/25 02:04:35;;;;;;;5.83;4.90;;;15.20;79.50;;;14.96;68.46;98374.16;4970317;28;20460;-76
2023/06/25 02:07:03;;;;;;;5.00;4.30;;;15.20;79.80;;;14.99;68.69;98365.50;4967515;28;20448;-73
2023/06/25 02:09:31;;;;;;;7.93;5.67;;;15.20;79.80;;;15.12;68.47;98363.63;4982782;28;20454;-73
2023/06/25 02:11:59;;;;;;;5.00;3.93;;;15.20;79.90;;;15.06;68.33;98361.84;4978585;28;20445;-76
2023/06/25 02:14:28;;;;;;;5.27;4.77;;;15.20;80.10;;;15.02;68.25;98369.66;4986140;28;20957;-78
2023/06/25 02:16:56;;;;;;;5.30;4.50;;;15.10;80.10;;;14.60;68.86;98302.53;4988460;28;20458;-78
2023/06/25 02:19:23;;;;;;;5.87;4.47;;;15.10;80.60;;;15.01;68.30;98366.09;4982191;28;20447;-76
2023/06/25 02:21:52;;;;;;;5.57;4.93;;;15.00;80.40;;;15.05;67.96;98368.34;4987150;28;20944;-76
2023/06/25 02:24:19;;;;;;;6.00;4.87;;;15.10;80.30;;;15.02;68.41;98367.75;4970711;28;20462;-76
2023/06/25 02:26:49;;;;;;;5.03;4.07;;;15.10;80.70;;;14.96;68.93;98371.44;4987994;28;20458;-77
2023/06/25 02:29:17;;;;;;;4.80;3.90;;;15.10;80.80;;;14.90;68.99;98366.09;4990848;28;20486;-77
2023/06/25 02:31:47;;;;;;;6.93;5.40;;;15.00;80.50;;;14.94;68.79;98359.97;4988378;28;20489;-77
2023/06/25 02:34:16;;;;;;;4.80;4.30;;;15.10;80.40;;;14.87;68.65;98351.06;4974837;28;20467;-77
2023/06/25 02:36:44;;;;;;;5.00;4.47;;;15.10;80.50;;;14.96;68.40;98357.81;4987292;28;20462;-77
2023/06/25 02:39:13;;;;;;;5.23;4.20;;;15.10;80.30;;;14.93;68.18;98358.28;4984076;28;20453;-74
2023/06/25 02:41:41;;;;;;;5.10;4.27;;;15.10;80.20;;;14.94;69.00;98354.50;4987639;28;20465;-73
2023/06/25 02:44:09;;;;;;;6.73;4.23;;;15.10;80.60;;;14.95;68.88;98356.16;4985043;28;20689;-79
2023/06/25 02:46:36;;;;;;;9.17;5.60;;;15.10;80.70;;;14.88;69.51;98358.16;4987748;28;20455;-77
2023/06/25 02:49:06;;;;;;;5.03;4.53;;;15.00;80.90;;;14.85;69.41;98361.34;4990105;28;20470;-77
2023/06/25 02:51:34;;;;;;;5.10;4.20;;;14.90;81.30;;;14.84;69.24;98360.50;4989706;28;20466;-78
2023/06/25 02:54:02;;;;;;;5.43;4.93;;;14.90;81.10;;;14.86;69.34;98358.41;4987951;28;20954;-78
2023/06/25 02:56:30;;;;;;;5.53;4.43;;;14.90;81.30;;;14.83;69.63;98360.75;4989895;28;20569;-78
2023/06/25 02:58:58;;;;;;;4.10;3.70;;;14.90;81.30;;;14.73;69.61;98347.75;4991275;28;20537;-79
2023/06/25 03:01:25;;;;;;;5.10;4.40;;;14.90;81.60;;;14.68;70.56;98362.00;4993982;28;20510;-77
2023/06/25 03:03:53;;;;;;;5.17;4.50;;;14.80;81.90;;;14.64;70.24;98368.16;4997574;28;20464;-73
2023/06/25 03:06:23;;;;;;;5.30;4.80;;;14.80;82.00;;;14.66;70.63;98361.44;4993560;28;20547;-77
2023/06/25 03:08:50;;;;;;;5.60;4.67;;;14.70;82.20;;;14.60;70.85;98359.63;5002668;28;20478;-78
2023/06/25 03:11:19;;;;;;;6.27;5.00;;;14.70;82.50;;;14.64;70.06;98355.41;4993929;28;20474;-78
2023/06/25 03:13:47;;;;;;;5.27;4.10;;;14.60;82.20;;;14.68;70.02;98351.13;5009721;28;20512;-76
2023/06/25 03:16:14;;;;;;;5.27;4.30;;;14.70;82.10;;;14.64;69.69;98346.41;5001114;28;20453;-79
2023/06/25 03:18:41;;;;;;;9.30;7.17;;;14.80;81.80;;;14.62;69.75;98352.06;4989700;28;20517;-77
2023/06/25 03:21:08;;;;;;;6.30;4.47;;;14.80;81.80;;;14.70;69.58;98346.28;4982203;28;20950;-79
2023/06/25 03:23:38;;;;;;;7.03;4.87;;;14.80;81.80;;;14.69;70.13;98347.34;4974189;28;20484;-78
2023/06/25 03:26:05;;;;;;;4.70;4.30;;;14.80;81.90;;;14.61;70.29;98355.84;4989647;28;20461;-77
2023/06/25 03:28:32;;;;;;;4.70;4.20;;;14.70;82.20;;;14.62;70.41;98345.81;4990408;28;20467;-78
2023/06/25 03:31:00;;;;;;;6.30;4.33;;;14.60;82.40;;;14.66;70.53;98346.97;5012950;28;20533;-76
2023/06/25 03:33:27;;;;;;;5.67;4.13;;;14.60;82.60;;;14.58;70.63;98335.41;4991525;28;20538;-79
2023/06/25 03:35:54;;;;;;;5.40;4.83;;;14.70;82.50;;;14.63;70.10;98352.91;5009917;28;20450;-77
2023/06/25 03:38:22;;;;;;;4.83;4.27;;;14.70;82.50;;;14.87;69.93;98351.06;4987169;28;20550;-77
2023/06/25 03:40:50;;;;;;;6.37;5.20;;;14.80;82.40;;;14.80;69.91;98355.81;4996875;28;20458;-78
2023/06/25 03:43:17;;;;;;;5.33;4.50;;;14.90;82.30;;;14.87;69.67;98360.06;4998076;28;20457;-79
2023/06/25 03:45:45;;;;;;;5.27;4.50;;;14.90;82.30;;;14.93;70.08;98358.28;4989313;28;20471;-79
2023/06/25 03:48:12;;;;;;;4.77;4.07;;;15.00;82.30;;;15.07;69.47;98352.59;4976750;28;20984;-77
2023/06/25 03:50:39;;;;;;;5.60;4.43;;;15.10;82.10;;;15.12;69.89;98350.03;4976499;28;20598;-77
2023/06/25 03:53:06;;;;;;;5.27;4.67;;;15.20;82.10;;;15.16;69.39;98356.63;4991593;28;20949;-79
2023/06/25 03:55:34;;;;;;;5.07;3.93;;;15.30;81.70;;;15.08;68.64;98332.47;4996203;28;20508;-78
2023/06/25 03:58:02;;;;;;;7.20;4.87;;;15.40;81.50;;;15.19;69.01;98350.72;4976094;28;20462;-80
2023/06/25 04:00:29;;;;;;;5.60;4.67;;;15.40;81.30;;;15.29;68.05;98356.41;4986977;28;20513;-80
2023/06/25 04:02:57;;;;;;;5.90;4.73;;;15.50;81.00;;;15.28;67.54;98348.44;4982035;28;20445;-78
2023/06/25 04:05:24;;;;;;;6.70;4.90;;;15.40;80.50;;;15.37;67.39;98352.47;4990278;28;20461;-77
2023/06/25 04:07:51;;;;;;;6.03;4.50;;;15.50;80.30;;;15.96;65.40;98354.28;4990634;28;20471;-80
2023/06/25 04:10:19;;;;;;;6.70;4.80;;;16.00;79.50;;;16.76;62.68;98349.97;4989930;28;20472;-79
2023/06/25 04:12:46;;;;;;;4.87;3.70;;;16.80;78.10;;;17.35;60.08;98318.63;4968184;28;20448;-78
2023/06/25 04:15:14;;;;;;;6.47;4.87;;;17.60;76.00;;;17.99;58.45;98328.16;4994239;28;20460;-79
2023/06/25 04:17:42;;;;;;;4.90;4.27;;;18.30;74.20;;;18.68;56.28;98329.38;4986320;28;20444;-79
2023/06/25 04:20:09;;;;;;;5.20;3.97;;;19.00;72.30;;;18.86;55.88;98332.78;4971507;28;20551;-79
2023/06/25 04:22:36;;;;;;;5.67;4.50;;;19.30;70.80;;;18.93;55.40;98329.84;4986153;28;20467;-79
2023/06/25 04:25:05;;;;;;;4.60;3.80;;;19.70;69.30;;;20.07;52.93;98344.16;4989594;28;20459;-78
2023/06/25 04:27:32;;;;;;;4.70;4.00;;;20.60;68.10;;;19.67;52.78;98343.72;4988001;28;20538;-81
2023/06/25 04:29:59;;;;;;;5.40;4.80;;;20.80;65.50;;;19.55;53.33;98335.72;4993770;28;20541;-79
2023/06/25 04:32:28;;;;;;;5.00;4.50;;;20.60;65.20;;;19.59;53.57;98341.50;4968793;28;20452;-79
2023/06/25 04:34:55;;;;;;;5.00;4.43;;;20.40;65.40;;;20.45;51.02;98335.75;4986576;28;20518;-80
2023/06/25 04:37:22;;;;;;;5.23;4.00;;;21.00;64.30;;;20.44;50.99;98350.56;4986926;28;20530;-79
2023/06/25 04:39:49;;;;;;;5.93;4.40;;;21.50;63.20;;;20.67;50.61;98339.03;4973146;28;20453;-79
2023/06/25 04:42:17;;;;;;;4.33;3.93;;;21.50;63.00;;;20.84;50.60;98340.72;4988450;28;20463;-79
2023/06/25 04:44:44;;;;;;;5.40;4.90;;;21.70;62.60;;;21.55;48.16;98334.53;4992066;28;20470;-79
2023/06/25 04:47:11;;;;;;;4.43;4.00;;;22.20;61.20;;;21.36;48.71;98337.91;4994371;28;20488;-79
2023/06/25 04:49:40;;;;;;;5.30;4.80;;;22.50;60.10;;;22.10;47.14;98334.59;4969702;28;20848;-79
2023/06/25 04:52:07;;;;;;;4.83;4.20;;;22.60;60.00;;;21.95;47.17;98327.28;4963535;28;20543;-77
2023/06/25 04:54:34;;;;;;;4.80;3.90;;;22.60;59.50;;;22.66;45.62;98334.53;4979613;28;20466;-82
2023/06/25 04:57:03;;;;;;;3.60;3.30;;;23.00;59.20;;;21.55;47.92;98329.88;4988655;28;20464;-79
2023/06/25 04:59:30;;;;;;;4.60;4.17;;;22.30;59.00;;;22.20;46.63;98325.47;4986897;28;20925;-80
2023/06/25 05:01:57;;;;;;;5.07;4.57;;;22.70;58.90;;;21.86;47.23;98335.28;4990677;28;20449;-84
2023/06/25 05:04:24;;;;;;;4.60;4.20;;;22.90;58.40;;;22.22;46.73;98326.81;4997477;28;20514;-87
2023/06/25 05:06:53;;;;;;;5.53;4.07;;;23.10;58.10;;;21.54;48.34;98327.41;4993854;28;20461;-81
2023/06/25 05:09:20;;;;;;;5.07;4.50;;;22.80;58.10;;;22.03;47.10;98328.59;4995929;28;20472;-84
2023/06/25 05:11:48;;;;;;;4.93;4.37;;;22.90;58.00;;;23.14;44.53;98323.66;4996630;28;20469;-82
2023/06/25 05:14:15;;;;;;;6.17;4.53;;;23.40;57.60;;;22.77;44.88;98330.59;4994021;28;20793;-85
2023/06/25 05:16:42;;;;;;;4.40;4.00;;;23.80;56.50;;;23.10;44.30;98332.78;4994222;28;20461;-85
2023/06/25 05:19:10;;;;;;;5.33;4.53;;;23.80;56.50;;;24.12;42.28;98334.69;4973713;28;20457;-83
2023/06/25 05:21:37;;;;;;;4.83;4.40;;;24.70;55.90;;;24.47;41.71;98329.72;4992279;28;20458;-82
2023/06/25 05:24:07;;;;;;;4.60;4.20;;;25.10;55.10;;;23.54;43.20;98326.28;4973434;28;20530;-83
2023/06/25 05:26:34;;;;;;;5.27;4.70;;;24.90;54.90;;;23.23;43.92;98315.56;4990311;28;20455;-86
2023/06/25 05:29:02;;;;;;;5.83;4.00;;;24.20;55.20;;;24.31;41.80;98329.16;4981913;28;20580;-85
2023/06/25 05:31:30;;;;;;;4.53;4.13;;;24.40;55.00;;;23.87;42.33;98328.34;4981730;28;21116;-85
2023/06/25 05:33:57;;;;;;;4.60;3.97;;;24.60;54.20;;;25.27;39.22;98276.47;4990364;28;20479;-86
2023/06/25 05:36:24;;;;;;;5.20;4.70;;;25.30;54.40;;;25.17;40.17;98328.03;4966182;28;20479;-84
2023/06/25 05:38:52;;;;;;;4.63;4.07;;;25.50;53.80;;;23.65;43.37;98329.72;4986838;28;20449;-82
2023/06/25 05:41:20;;;;;;;5.73;5.13;;;25.00;54.00;;;24.43;41.76;98328.69;4988154;28;20489;-88
2023/06/25 05:43:47;;;;;;;4.10;3.70;;;25.20;53.70;;;26.12;38.68;98325.06;4991399;28;20468;-84
2023/06/25 05:46:15;;;;;;;3.77;3.37;;;26.20;53.30;;;26.86;37.08;98315.59;4983714;28;20540;-86
2023/06/25 05:48:44;;;;;;;5.27;4.17;;;27.20;52.10;;;27.43;36.36;98318.81;4974729;28;21030;-86
2023/06/25 05:51:11;;;;;;;5.17;4.40;;;27.90;51.50;;;27.36;35.92;98322.03;4980794;28;20518;-84
2023/06/25 05:53:41;;;;;;;4.57;4.17;;;28.00;50.80;;;27.61;35.52;98321.72;4987081;28;20477;-81
2023/06/25 05:56:08;;;;;;;3.60;3.30;;;28.00;50.10;;;27.57;35.58;98313.19;4990770;28;20486;-84
2023/06/25 05:58:37;;;;;;;4.43;3.90;;;28.20;50.50;;;27.94;35.03;98302.66;4992311;28;20444;-85
2023/06/25 06:01:05;;;;;;;4.97;4.57;;;28.10;50.00;;;27.58;35.40;98287.09;4987519;28;20464;-78
2023/06/25 06:03:32;;;;;;;4.60;4.17;;;28.20;49.70;;;28.65;34.34;98309.06;4989036;28;20548;-84
2023/06/25 06:06:01;;;;;;;5.07;4.57;;;28.70;49.50;;;26.54;36.73;98320.25;4994019;28;20449;-85
2023/06/25 06:08:29;;;;;;;4.47;3.90;;;28.00;49.10;;;26.12;38.37;98311.22;4979238;28;20475;-85
2023/06/25 06:10:56;;;;;;;4.77;4.37;;;27.30;49.60;;;27.11;36.20;98310.53;4985913;28;20456;-86
2023/06/25 06:13:23;;;;;;;4.17;3.83;;;27.40;49.70;;;26.67;36.83;98314.97;4990374;28;20469;-82
2023/06/25 06:15:52;;;;;;;4.20;3.80;;;27.20;49.80;;;27.17;35.81;98315.94;4973467;28;20458;-84
2023/06/25 06:18:19;;;;;;;5.40;4.50;;;27.70;49.40;;;27.76;34.72;98306.56;4990698;28;20471;-81
2023/06/25 06:20:46;;;;;;;4.10;3.70;;;28.20;48.80;;;26.28;37.08;98307.00;4968967;28;20486;-89
2023/06/25 06:23:13;;;;;;;4.53;3.73;;;27.90;48.80;;;25.30;39.17;98322.84;5000091;28;20443;-77
2023/06/25 06:25:41;;;;;;;4.30;3.80;;;26.80;49.30;;;24.82;40.35;98322.03;4996223;28;21173;-76
2023/06/25 06:28:08;;;;;;;3.60;3.30;;;26.00;50.20;;;25.21;39.88;98324.66;5009199;28;20471;-82
2023/06/25 06:30:35;;;;;;;5.43;4.37;;;25.70;50.60;;;25.95;38.76;98322.97;4989053;28;20566;-83
2023/06/25 06:33:04;;;;;;;4.07;3.73;;;26.40;50.30;;;26.10;38.38;98317.09;4984541;28;20474;-78
2023/06/25 06:35:31;;;;;;;4.80;3.80;;;26.50;50.20;;;24.75;40.97;98330.69;4984335;28;20483;-80
2023/06/25 06:37:58;;;;;;;4.13;3.73;;;25.60;50.90;;;22.93;44.31;98329.34;4988425;28;20458;-86
2023/06/25 06:40:26;;;;;;;4.90;4.40;;;24.10;51.70;;;22.70;45.56;98325.41;4990872;28;20515;-85
2023/06/25 06:42:53;;;;;;;4.07;3.77;;;23.10;53.00;;;22.32;46.33;98325.13;4972577;28;20487;-85
2023/06/25 06:45:20;;;;;;;5.10;4.60;;;22.60;53.60;;;22.41;46.73;98322.59;4979391;28;20508;-74
2023/06/25 06:47:47;;;;;;;5.03;4.53;;;22.60;54.40;;;22.22;47.38;98326.03;4965545;28;20472;-79
2023/06/25 06:50:16;;;;;;;5.10;3.73;;;22.40;54.80;;;22.53;46.95;98331.34;4984363;28;20550;-75
2023/06/25 06:52:44;;;;;;;4.87;4.40;;;22.50;55.30;;;22.08;47.91;98320.31;4987851;28;20467;-78
2023/06/25 06:55:11;;;;;;;4.20;3.80;;;22.30;55.60;;;22.00;48.07;98320.91;4981498;28;20450;-78
2023/06/25 06:57:39;;;;;;;5.33;4.83;;;22.20;55.70;;;22.36;47.94;98317.94;4986033;28;20465;-86
2023/06/25 07:00:09;;;;;;;4.70;4.30;;;22.30;56.30;;;22.45;47.11;98318.16;4995783;28;20550;-85
2023/06/25 07:02:36;;;;;;;4.70;4.10;;;22.40;55.90;;;22.62;46.88;98321.34;4990391;28;20466;-84
2023/06/25 07:05:03;;;;;;;4.70;4.30;;;22.50;56.00;;;22.59;46.58;98280.63;4990890;28;20456;-79
2023/06/25 07:07:33;;;;;;;4.33;3.93;;;22.60;55.90;;;22.79;46.87;98311.84;4987807;28;20455;-82
2023/06/25 07:10:00;;;;;;;4.10;3.73;;;22.70;56.00;;;22.67;47.51;98322.41;4987303;28;20526;-84
2023/06/25 07:12:28;;;;;;;3.90;3.50;;;22.70;56.30;;;22.97;47.04;98312.22;4991342;28;20467;-88
2023/06/25 07:14:55;;;;;;;6.57;4.90;;;22.90;56.90;;;22.99;46.34;98321.03;4995640;28;20459;-82
2023/06/25 07:17:24;;;;;;;7.00;4.17;;;22.90;56.10;;;23.20;46.35;98314.22;5001163;28;20539;-77
2023/06/25 07:19:51;;;;;;;5.20;4.53;;;23.10;56.40;;;22.78;47.01;98266.97;4999038;28;20444;-85
2023/06/25 07:22:19;;;;;;;4.93;3.90;;;23.10;56.50;;;23.12;46.20;98303.81;4980071;28;20459;-79
2023/06/25 07:24:47;;;;;;;4.97;3.97;;;23.10;56.10;;;23.25;46.61;98313.34;4999970;28;20457;-85
2023/06/25 07:27:15;;;;;;;4.70;4.30;;;23.20;56.50;;;22.78;47.44;98308.28;4995125;28;20477;-83
2023/06/25 07:29:42;;;;;;;4.83;3.80;;;23.00;56.50;;;22.58;47.86;98254.22;4978251;28;21000;-86
2023/06/25 07:32:09;;;;;;;4.67;4.20;;;22.90;57.10;;;22.84;47.05;98308.22;4981257;28;20462;-81
2023/06/25 07:34:37;;;;;;;4.70;4.30;;;22.90;56.70;;;23.03;47.63;98319.34;4988086;28;20476;-82
2023/06/25 07:37:06;;;;;;;4.70;4.30;;;22.90;57.30;;;23.11;46.78;98302.16;4967473;28;21178;-83
2023/06/25 07:39:34;;;;;;;5.80;4.87;;;23.10;57.00;;;23.45;46.06;98304.06;4990165;28;20529;-84
2023/06/25 07:42:03;;;;;;;5.00;4.20;;;23.30;56.70;;;23.62;45.80;98311.03;4989361;28;20445;-80
2023/06/25 07:44:31;;;;;;;5.60;4.37;;;23.40;56.50;;;23.94;45.08;98317.78;4993960;28;20469;-79
2023/06/25 07:46:58;;;;;;;3.97;3.60;;;23.70;56.50;;;23.89;45.09;98315.09;4995747;28;20448;-80
2023/06/25 07:49:25;;;;;;;4.90;4.50;;;23.80;56.20;;;24.03;44.74;98310.50;4981440;28;20472;-79
2023/06/25 07:51:56;;;;;;;5.37;4.87;;;24.00;56.20;;;24.01;44.13;98307.19;4995483;28;20531;-82
2023/06/25 07:54:24;;;;;;;5.07;4.37;;;24.00;55.50;;;24.09;44.15;98313.19;4988139;28;20864;-82
2023/06/25 07:56:51;;;;;;;5.57;4.97;;;24.10;55.50;;;24.05;43.62;98307.44;5006475;28;20452;-81
2023/06/25 07:59:20;;;;;;;6.00;5.00;;;24.00;55.10;;;24.11;43.86;98305.44;5006185;28;20517;-80
2023/06/25 08:01:47;;;;;;;4.70;4.30;;;24.00;55.40;;;24.12;43.71;98301.56;4985246;28;20457;-78
2023/06/25 08:04:14;;;;;;;5.60;5.00;;;24.00;55.40;;;23.95;44.50;98311.13;4993659;28;20489;-85
2023/06/25 08:06:42;;;;;;;5.40;4.13;;;23.90;55.50;;;24.03;44.13;98302.22;4974988;28;20439;-84
2023/06/25 08:09:09;;;;;;;6.03;4.13;;;24.00;55.50;;;23.92;44.79;98297.94;5000894;28;20543;-83
2023/06/25 08:11:37;;;;;;;8.03;4.70;;;23.90;55.60;;;24.17;44.28;98301.47;4990166;28;20465;-82
2023/06/25 08:14:04;;;;;;;4.77;4.23;;;24.00;55.80;;;24.26;43.43;98296.94;4988948;28;20884;-85
2023/06/25 08:16:33;;;;;;;5.03;4.53;;;24.10;55.20;;;24.38;43.35;98292.91;4990673;28;20457;-81
2023/06/25 08:19:01;;;;;;;4.33;3.60;;;24.20;55.20;;;24.50;42.28;98287.75;4993857;28;20448;-83
2023/06/25 08:21:28;;;;;;;4.00;3.43;;;24.40;54.70;;;24.02;42.54;98234.34;4990202;28;20856;-85
2023/06/25 08:23:55;;;;;;;4.13;3.73;;;24.30;54.30;;;24.35;42.88;98280.50;4980442;28;20539;-86
2023/06/25 08:26:22;;;;;;;4.23;3.50;;;24.30;54.20;;;24.33;42.52;98280.78;4978304;28;20456;-85
2023/06/25 08:28:50;;;;;;;3.87;3.47;;;24.30;53.90;;;24.43;42.36;98274.31;4993695;28;20456;-83
2023/06/25 08:31:18;;;;;;;3.93;3.60;;;24.40;54.00;;;24.23;40.89;98277.38;4992321;28;20450;-82
2023/06/25 08:33:46;;;;;;;4.00;3.63;;;24.30;52.50;;;24.35;41.07;98276.94;4998805;28;20526;-78
2023/06/25 08:36:14;;;;;;;4.00;3.60;;;24.20;52.90;;;24.15;42.84;98278.88;4983226;28;20495;-86
2023/06/25 08:38:41;;;;;;;5.00;4.00;;;24.20;53.70;;;24.47;41.98;98230.34;4992341;28;20463;-82
2023/06/25 08:41:08;;;;;;;4.83;4.13;;;24.40;54.00;;;24.97;42.26;98281.44;4981866;28;20443;-84
2023/06/25 08:43:36;;;;;;;4.50;4.10;;;24.70;54.50;;;24.75;42.13;98277.38;4989841;28;20448;-82
2023/06/25 08:46:03;;;;;;;4.53;4.03;;;24.80;54.20;;;24.79;42.18;98275.66;4990615;28;20452;-80
2023/06/25 08:48:34;;;;;;;4.40;4.00;;;24.70;54.30;;;24.84;42.83;98261.78;4985571;28;20509;-83
2023/06/25 08:51:12;;;;;;;4.03;3.63;;;24.70;54.50;;;25.01;42.05;98268.66;4991274;28;20480;-82
2023/06/25 08:53:39;;;;;;;4.60;4.20;;;24.90;54.30;;;25.07;42.06;98264.66;4993608;28;20465;-84
2023/06/25 08:56:07;;;;;;;4.20;3.80;;;24.90;54.20;;;24.85;42.08;98263.41;4990571;28;20803;-80
2023/06/25 08:58:36;;;;;;;3.90;3.50;;;24.80;54.00;;;24.83;42.17;98260.13;4990322;28;20447;-86
2023/06/25 09:01:03;;;;;;;4.43;3.63;;;24.80;54.20;;;25.25;40.93;98262.09;4989659;28;20978;-81
2023/06/25 09:03:31;;;;;;;4.17;3.47;;;24.90;53.70;;;25.41;40.95;98257.09;4990736;28;20457;-83
2023/06/25 09:05:59;;;;;;;4.03;3.63;;;25.10;53.60;;;25.57;40.51;98250.16;4995081;28;20458;-82
2023/06/25 09:08:29;;;;;;;5.23;3.60;;;25.20;53.50;;;25.46;40.93;98251.44;4982656;28;20845;-86
2023/06/25 09:10:57;;;;;;;3.97;3.37;;;25.30;53.60;;;25.44;39.65;98251.78;5008532;28;20537;-79
2023/06/25 09:13:27;;;;;;;3.63;3.33;;;25.30;52.40;;;25.21;39.92;98247.25;4993458;28;21771;-78
2023/06/25 09:16:03;;;;;;;4.30;3.90;;;25.20;52.50;;;25.33;40.35;98244.81;5010972;28;20464;-85
2023/06/25 09:18:32;;;;;;;4.27;3.50;;;25.20;53.00;;;25.09;41.44;98245.81;4998218;28;20484;-84
2023/06/25 09:21:03;;;;;;;3.83;3.40;;;25.10;53.30;;;25.23;41.20;98239.47;4963080;28;20455;-83
2023/06/25 09:23:32;;;;;;;3.27;2.97;;;25.10;53.30;;;25.22;40.65;98248.91;4997249;28;20450;-86
2023/06/25 09:26:04;;;;;;;3.27;2.97;;;25.00;52.90;;;25.25;40.08;98253.81;4997655;28;20459;-86
2023/06/25 09:28:33;;;;;;;3.70;2.93;;;25.10;52.50;;;25.31;40.02;98258.13;4985686;28;20826;-85
2023/06/25 09:31:01;;;;;;;4.40;4.00;;;25.10;52.70;;;25.01;39.59;98232.72;4998123;28;20478;-84
2023/06/25 09:33:33;;;;;;;4.97;3.67;;;25.10;51.90;;;25.29;39.34;98247.38;4994412;28;20453;-85
2023/06/25 09:36:03;;;;;;;4.00;3.70;;;25.10;51.90;;;25.38;38.85;98244.69;4994611;28;20441;-86
2023/06/25 09:38:32;;;;;;;3.60;3.30;;;25.20;51.40;;;25.65;38.70;98245.84;4974540;28;20535;-85
2023/06/25 09:41:00;;;;;;;3.30;3.00;;;25.40;51.60;;;25.58;36.44;98237.16;4990011;28;20872;-83
2023/06/25 09:43:29;;;;;;;2.90;2.70;;;25.40;49.70;;;25.47;36.55;98233.72;4985261;28;20549;-86
2023/06/25 09:45:58;;;;;;;3.10;2.80;;;25.40;49.40;;;25.57;37.58;98233.56;4972746;28;20483;-81
2023/06/25 09:48:25;;;;;;;3.47;3.17;;;25.40;50.20;;;25.51;36.37;98239.50;4975518;28;20454;-86
2023/06/25 09:50:57;;;;;;;3.10;2.80;;;25.40;49.50;;;25.36;37.37;98235.09;4989200;28;20932;-86
2023/06/25 09:53:28;;;;;;;2.67;2.47;;;25.30;49.80;;;25.53;36.75;98235.31;4987122;28;20547;-86
2023/06/25 09:55:57;;;;;;;3.30;3.00;;;25.30;49.80;;;25.62;36.53;98238.16;4993872;28;20944;-84
2023/06/25 09:58:26;;;;;;;3.43;3.13;;;25.40;49.70;;;25.71;36.70;98236.31;4989167;28;20452;-84
2023/06/25 10:00:55;;;;;;;3.90;3.10;;;25.50;49.80;;;25.22;36.80;98235.06;4989726;28;20473;-83
2023/06/25 10:03:24;;;;;;;2.93;2.73;;;25.30;48.90;;;25.28;37.19;98236.63;4994105;28;20483;-81
2023/06/25 10:05:52;;;;;;;2.50;2.30;;;25.20;49.40;;;25.86;36.80;98224.06;4992716;28;20451;-82
2023/06/25 10:08:20;;;;;;;3.23;2.93;;;25.40;50.10;;;25.97;36.16;98230.16;4975772;28;20627;-87
2023/06/25 10:10:59;;;;;;;3.27;2.97;;;25.70;49.70;;;26.09;36.01;98218.56;4976358;28;20582;-85
2023/06/25 10:13:26;;;;;;;3.30;2.93;;;25.80;49.40;;;26.19;36.78;98225.84;4990432;28;20454;-85
2023/06/25 10:16:05;;;;;;;2.90;2.70;;;25.90;49.90;;;26.34;37.02;98227.41;4998863;28;20455;-83
2023/06/25 10:18:40;;;;;;;2.83;2.50;;;26.10;50.10;;;26.25;35.85;98216.25;4997729;28;20451;-87
2023/06/25 10:21:08;;;;;;;3.30;3.00;;;26.10;48.90;;;25.96;36.43;98211.94;5003879;28;20480;-78
2023/06/25 10:23:37;;;;;;;3.37;3.07;;;25.90;48.90;;;26.25;36.52;98213.50;5008085;28;20451;-79
2023/06/25 10:26:06;;;;;;;3.00;2.70;;;26.00;49.50;;;25.94;35.78;98189.28;4974437;28;20447;-79